Terminal Aerodrome Forecast
Issued by NWS

Home | Current Version | Previous Version | Text Only | Print | Product List | Glossary On
Versions: 1 2 3 4 5 6 7 8 9 10 11 12 13 14 15 16 17 18 19 20 21 22 23 24 25 26 27 28 29 30 31 32 33 34 35 36 37 38 39 40 41 42 43 44
000
FTUS43 KDDC 230520
TAFGCK
TAF
KGCK 230520Z 2306/2406 13013KT P6SM SKC
     FM230800 16012KT 1 1/2SM -DZ BR OVC015 WS020/18040KT
     FM231000 17013KT 1/2SM -DZ FG OVC003 WS020/19040KT
     FM231200 17013G21KT 4SM -DZ BR OVC020
     FM231500 19019G28KT 4SM BR BKN020
     FM231700 19021G30KT P6SM BKN130
     FM240000 17021G33KT P6SM -SHRA VCTS BKN090CB
     FM240300 17018G27KT P6SM -SHRA VCTS BKN120CB WS020/18050KT=

USA.gov is the U.S. government's official web portal to all federal, state and local government web resources and services.